Terminal Aerodrome Forecast
Issued by NWS Corpus Christi, TX

Home | Current Version | Previous Version | Text Only | Print | Product List | Glossary On
Versions: 1 2 3 4 5 6 7 8 9 10 11 12 13 14 15 16 17 18 19 20
000
FTUS44 KCRP 281402 AAB
TAFCRP
TAF AMD
KCRP 281402Z 2814/2912 16012G18KT P6SM SCT015 SCT025
      TEMPO 2814/2815 BKN017
     FM281900 14018G26KT P6SM FEW035
     FM290200 14011KT P6SM FEW017
      TEMPO 2908/2912 BKN015=

USA.gov is the U.S. government's official web portal to all federal, state and local government web resources and services.